Time;durP1;ratioP1;P1;durP2;ratioP2;P2;SDS_P1;SDS_P2;PMS_P1;PMS_P2;Temp;Humidity;BMP_temperature;BMP_pressure;BME280_temperature;BME280_humidity;BME280_pressure;Samples;Min_cycle;Max_cycle;Signal;HPM_P1;HPM_P2
2022/04/11 00:01:31;;;;;;;44.25;22.80;;;-1.60;99.90;;;;;;5016410;28;20052;-86
2022/04/11 00:03:57;;;;;;;43.28;22.30;;;-1.60;99.90;;;;;;5034790;28;20120;-86
2022/04/11 00:06:22;;;;;;;40.70;20.58;;;-1.60;99.90;;;;;;5048790;28;20514;-87
2022/04/11 00:08:48;;;;;;;40.80;20.27;;;-1.60;99.90;;;;;;5033318;28;20033;-86
2022/04/11 00:11:14;;;;;;;45.95;22.13;;;-1.60;99.90;;;;;;5016258;28;20386;-87
2022/04/11 00:13:40;;;;;;;37.38;20.63;;;-1.60;99.90;;;;;;5032620;28;20064;-87
2022/04/11 00:16:07;;;;;;;35.17;19.40;;;-1.60;99.90;;;;;;5016026;28;20021;-87
2022/04/11 00:18:36;;;;;;;40.40;18.63;;;-1.60;99.90;;;;;;5049531;28;20044;-86
2022/04/11 00:21:02;;;;;;;35.60;18.42;;;-1.60;99.90;;;;;;5016273;28;20044;-87
2022/04/11 00:23:28;;;;;;;42.95;18.58;;;-1.50;99.90;;;;;;5016110;28;20076;-86
2022/04/11 00:25:54;;;;;;;34.08;19.02;;;-1.60;99.90;;;;;;5015854;28;20069;-86
2022/04/11 00:28:19;;;;;;;43.90;20.42;;;-1.60;99.90;;;;;;5032137;28;20100;-86
2022/04/11 00:30:46;;;;;;;41.00;18.48;;;-1.60;99.90;;;;;;5048815;28;20034;-87
2022/04/11 00:33:12;;;;;;;35.35;18.80;;;-1.50;99.90;;;;;;5015495;28;20056;-86
2022/04/11 00:35:38;;;;;;;35.85;18.05;;;-1.50;99.90;;;;;;5015740;28;20069;-86
2022/04/11 00:38:04;;;;;;;39.38;17.88;;;-1.50;99.90;;;;;;5032559;28;20025;-86
2022/04/11 00:40:36;;;;;;;39.65;18.73;;;-1.50;99.90;;;;;;5048821;28;20033;-87
2022/04/11 00:43:02;;;;;;;37.92;18.23;;;-1.40;99.90;;;;;;5015541;28;20053;-87
2022/04/11 00:45:27;;;;;;;38.60;18.38;;;-1.40;99.90;;;;;;5015375;28;20025;-87
2022/04/11 00:47:53;;;;;;;36.55;19.67;;;-1.30;99.90;;;;;;5048593;28;20034;-87
2022/04/11 00:50:19;;;;;;;34.53;18.15;;;-1.20;99.90;;;;;;5048299;28;20116;-87
2022/04/11 00:52:49;;;;;;;35.17;18.02;;;-1.20;99.90;;;;;;5015592;28;20036;-87
2022/04/11 00:55:18;;;;;;;39.53;17.92;;;-1.20;99.90;;;;;;5015446;28;20476;-87
2022/04/11 00:57:45;;;;;;;31.30;16.73;;;-1.10;99.90;;;;;;5031906;28;20033;-87
2022/04/11 01:00:13;;;;;;;32.13;15.88;;;-1.20;99.90;;;;;;5015158;28;20030;-87
2022/04/11 01:02:39;;;;;;;32.75;16.83;;;-1.30;99.90;;;;;;5048333;28;20116;-87
2022/04/11 01:05:09;;;;;;;29.10;15.73;;;-1.30;99.90;;;;;;5015542;28;20045;-87
2022/04/11 01:07:39;;;;;;;35.30;14.75;;;-1.30;99.90;;;;;;5015331;28;20041;-87
2022/04/11 01:10:06;;;;;;;27.55;14.77;;;-1.30;99.90;;;;;;5015226;28;20034;-87
2022/04/11 01:12:33;;;;;;;26.38;14.27;;;-1.30;99.90;;;;;;5047736;28;20034;-86
2022/04/11 01:14:58;;;;;;;28.65;14.10;;;-1.30;99.90;;;;;;5015167;28;20032;-87
2022/04/11 01:17:35;;;;;;;30.88;14.55;;;-1.30;99.90;;;;;;5014425;28;20017;-87
2022/04/11 01:20:13;;;;;;;25.05;14.15;;;-1.30;99.90;;;;;;5015077;28;20061;-86
2022/04/11 01:22:40;;;;;;;36.25;16.38;;;-1.20;99.90;;;;;;5014952;28;20029;-87
2022/04/11 01:25:08;;;;;;;36.88;17.70;;;-1.00;99.90;;;;;;5047878;28;20021;-87
2022/04/11 01:27:34;;;;;;;36.25;18.52;;;-0.90;99.90;;;;;;5030829;28;20064;-87
2022/04/11 01:30:00;;;;;;;36.03;18.75;;;-0.70;99.90;;;;;;5031299;28;20021;-87
2022/04/11 01:32:28;;;;;;;38.13;20.15;;;-0.60;99.90;;;;;;5014910;28;20469;-86
2022/04/11 01:34:56;;;;;;;35.10;20.92;;;-0.50;99.90;;;;;;5015229;28;20358;-86
2022/04/11 01:37:21;;;;;;;34.67;18.33;;;-0.30;99.90;;;;;;5030891;28;20381;-86
2022/04/11 01:39:47;;;;;;;28.35;15.90;;;-0.20;99.90;;;;;;5014344;28;20029;-86
2022/04/11 01:42:13;;;;;;;36.55;16.02;;;-0.30;99.90;;;;;;5014758;28;20043;-87
2022/04/11 01:44:39;;;;;;;29.27;16.45;;;-0.30;99.90;;;;;;5015183;28;20627;-87
2022/04/11 01:47:04;;;;;;;25.25;15.85;;;-0.30;99.90;;;;;;5014896;28;20076;-87
2022/04/11 01:49:30;;;;;;;32.67;16.17;;;-0.30;99.90;;;;;;5014575;28;20072;-87
2022/04/11 01:51:56;;;;;;;27.15;16.50;;;-0.30;99.90;;;;;;5047404;28;20432;-87
2022/04/11 01:54:22;;;;;;;29.20;16.58;;;-0.20;99.90;;;;;;5014883;28;20056;-87
2022/04/11 01:56:48;;;;;;;32.30;17.25;;;-0.20;99.90;;;;;;5014660;28;20075;-87
2022/04/11 01:59:16;;;;;;;29.08;15.32;;;-0.20;99.90;;;;;;5014982;28;20035;-86
2022/04/11 02:01:43;;;;;;;27.98;15.25;;;-0.20;99.90;;;;;;5031382;28;20049;-87
2022/04/11 02:04:10;;;;;;;26.50;15.20;;;-0.20;99.90;;;;;;5014848;28;20033;-87
2022/04/11 02:06:36;;;;;;;31.55;14.77;;;-0.20;99.90;;;;;;5023374;28;20107;-87
2022/04/11 02:09:03;;;;;;;29.92;15.25;;;-0.20;99.90;;;;;;5031247;28;20038;-87
2022/04/11 02:11:29;;;;;;;28.83;14.38;;;-0.20;99.90;;;;;;5014261;28;20084;-87
2022/04/11 02:13:54;;;;;;;27.38;15.05;;;-0.20;99.90;;;;;;5014492;28;20025;-86
2022/04/11 02:16:22;;;;;;;23.63;14.02;;;-0.20;99.90;;;;;;5014183;28;20064;-86
2022/04/11 02:18:48;;;;;;;23.75;12.63;;;-0.20;99.90;;;;;;5014775;28;20045;-87
2022/04/11 02:21:14;;;;;;;23.45;12.50;;;-0.10;99.90;;;;;;5031152;28;20512;-87
2022/04/11 02:23:39;;;;;;;23.27;12.63;;;-0.10;99.90;;;;;;5014561;28;20041;-87
2022/04/11 02:26:05;;;;;;;22.05;12.25;;;-0.10;99.90;;;;;;5014387;28;20040;-87
2022/04/11 02:28:31;;;;;;;24.02;11.80;;;-0.10;99.90;;;;;;5031375;28;20033;-86
2022/04/11 02:30:57;;;;;;;23.60;11.18;;;-0.10;99.90;;;;;;5034912;28;20472;-86
2022/04/11 02:33:40;;;;;;;23.33;12.27;;;-0.20;99.90;;;;;;5001606;28;20060;-87
2022/04/11 02:36:05;;;;;;;27.80;11.57;;;-0.10;99.90;;;;;;5018205;28;20251;-86
2022/04/11 02:39:03;;;;;;;24.60;11.93;;;0.00;99.90;;;;;;5017880;28;20029;-87
2022/04/11 02:41:29;;;;;;;22.55;11.55;;;0.10;99.90;;;;;;5017757;28;20030;-85
2022/04/11 02:43:55;;;;;;;28.33;11.38;;;0.20;99.90;;;;;;5017917;28;20088;-87
2022/04/11 02:46:23;;;;;;;20.25;10.70;;;0.30;99.90;;;;;;5017931;28;20033;-84
2022/04/11 02:48:48;;;;;;;21.88;11.05;;;0.30;99.90;;;;;;5017744;28;20029;-87
2022/04/11 02:51:20;;;;;;;;;;;0.40;99.90;;;;;;5017869;28;20734;-87
2022/04/11 02:54:08;;;;;;;19.88;10.82;;;0.40;99.90;;;;;;5018188;28;20007;-87
2022/04/11 02:56:38;;;;;;;20.15;10.43;;;0.40;99.90;;;;;;5010072;28;20036;-87
2022/04/11 02:59:04;;;;;;;21.60;9.80;;;0.40;99.90;;;;;;5017806;28;20033;-87
2022/04/11 03:01:31;;;;;;;17.48;10.45;;;0.40;99.90;;;;;;5017462;28;20033;-87
2022/04/11 03:03:59;;;;;;;20.92;10.20;;;0.40;99.90;;;;;;5033883;28;20033;-87
2022/04/11 03:06:34;;;;;;;25.80;9.85;;;0.50;99.90;;;;;;5035275;28;20500;-87
2022/04/11 03:09:00;;;;;;;21.67;11.07;;;0.50;99.90;;;;;;5033896;28;20025;-87
2022/04/11 03:11:32;;;;;;;19.58;10.70;;;0.50;99.90;;;;;;5017436;28;20672;-87
2022/04/11 03:13:59;;;;;;;20.27;10.10;;;0.50;99.90;;;;;;5017491;28;20508;-87
2022/04/11 03:16:25;;;;;;;17.75;9.60;;;0.50;99.90;;;;;;5017308;28;20516;-87
2022/04/11 03:18:51;;;;;;;17.17;10.02;;;0.50;99.90;;;;;;5017337;28;20082;-87
2022/04/11 03:21:17;;;;;;;18.63;9.80;;;0.50;99.90;;;;;;5017414;28;20132;-87
2022/04/11 03:23:49;;;;;;;20.48;10.18;;;0.50;99.90;;;;;;5050365;28;20036;-87
2022/04/11 03:26:15;;;;;;;23.55;10.73;;;0.40;99.90;;;;;;5016579;28;20116;-87
2022/04/11 03:28:41;;;;;;;18.98;9.82;;;0.50;99.90;;;;;;5017044;28;20056;-87
2022/04/11 03:31:07;;;;;;;18.13;9.88;;;0.40;99.90;;;;;;5017148;28;20088;-87
2022/04/11 03:33:32;;;;;;;23.42;12.75;;;0.40;99.90;;;;;;5050016;28;20033;-87
2022/04/11 03:35:58;;;;;;;20.73;11.27;;;0.40;99.90;;;;;;5016800;28;20028;-87
2022/04/11 03:38:25;;;;;;;16.63;10.57;;;0.40;99.90;;;;;;5016848;28;20051;-87
2022/04/11 03:40:53;;;;;;;28.48;12.10;;;0.40;99.90;;;;;;5031962;28;20396;-87
2022/04/11 03:43:19;;;;;;;17.25;11.43;;;0.40;99.90;;;;;;5016671;28;20064;-85
2022/04/11 03:45:46;;;;;;;16.35;9.93;;;0.40;99.90;;;;;;5016863;28;20121;-87
2022/04/11 03:48:14;;;;;;;23.38;10.50;;;0.30;99.90;;;;;;5016897;28;20033;-87
2022/04/11 03:50:40;;;;;;;17.48;9.95;;;0.40;99.90;;;;;;5000699;28;20033;-87
2022/04/11 03:53:06;;;;;;;19.52;9.90;;;0.40;99.90;;;;;;5033482;28;20053;-87
2022/04/11 03:55:36;;;;;;;19.90;9.48;;;0.50;99.90;;;;;;5016941;28;20021;-87
2022/04/11 03:58:02;;;;;;;13.95;7.65;;;0.50;99.90;;;;;;5016719;28;20029;-87
2022/04/11 04:00:32;;;;;;;15.65;8.82;;;0.40;99.90;;;;;;5032877;28;20029;-87
2022/04/11 04:03:12;;;;;;;16.63;8.00;;;0.40;99.90;;;;;;5030635;28;20018;-87
2022/04/11 04:05:44;;;;;;;15.18;8.18;;;0.40;99.90;;;;;;5049896;28;20030;-87
2022/04/11 04:08:11;;;;;;;19.55;7.05;;;0.40;99.90;;;;;;5016791;28;20028;-87
2022/04/11 04:10:41;;;;;;;13.57;8.07;;;0.40;99.90;;;;;;5049280;28;20022;-87
2022/04/11 04:13:07;;;;;;;15.82;8.02;;;0.40;99.90;;;;;;5032703;28;20033;-87
2022/04/11 04:15:33;;;;;;;13.20;7.43;;;0.40;99.90;;;;;;5032809;28;20039;-87
2022/04/11 04:17:59;;;;;;;12.35;7.55;;;0.30;99.90;;;;;;5016373;28;20030;-87
2022/04/11 04:20:26;;;;;;;14.48;6.93;;;0.40;99.90;;;;;;5032874;28;20041;-88
2022/04/11 04:22:53;;;;;;;16.40;7.72;;;0.40;99.90;;;;;;5016399;28;20605;-87
2022/04/11 04:25:19;;;;;;;14.05;7.72;;;0.30;99.90;;;;;;5016335;28;20025;-87
2022/04/11 04:27:45;;;;;;;16.98;7.22;;;0.30;99.90;;;;;;5015905;28;20423;-87
2022/04/11 04:30:14;;;;;;;15.05;7.63;;;0.30;99.90;;;;;;5016140;28;20033;-87
2022/04/11 04:32:41;;;;;;;18.55;7.30;;;0.30;99.90;;;;;;5015816;28;20036;-87
2022/04/11 04:35:08;;;;;;;14.07;7.38;;;0.30;99.90;;;;;;5016167;28;20029;-88
2022/04/11 04:37:35;;;;;;;19.40;8.75;;;0.40;99.90;;;;;;5031933;28;20052;-87
2022/04/11 04:40:03;;;;;;;33.03;13.75;;;0.40;99.90;;;;;;5032055;28;20025;-87
2022/04/11 04:42:29;;;;;;;18.02;10.07;;;0.30;99.90;;;;;;5015258;28;20650;-87
2022/04/11 04:45:05;;;;;;;17.70;8.30;;;0.40;99.90;;;;;;5012029;28;20527;-91
2022/04/11 04:47:37;;;;;;;13.23;7.93;;;0.40;99.90;;;;;;5018184;28;20029;-91
2022/04/11 04:50:04;;;;;;;15.57;8.30;;;0.40;99.90;;;;;;5016928;28;20031;-92
2022/04/11 04:52:30;;;;;;;21.08;7.68;;;0.40;99.90;;;;;;5016384;28;20029;-92
2022/04/11 04:55:00;;;;;;;14.50;7.75;;;0.40;99.90;;;;;;5015996;28;20072;-92
2022/04/11 04:57:28;;;;;;;17.25;8.05;;;0.40;99.90;;;;;;5017702;28;20029;-91
2022/04/11 04:59:55;;;;;;;17.08;7.65;;;0.50;99.90;;;;;;5016455;28;20025;-91
2022/04/11 05:02:38;;;;;;;13.73;7.20;;;0.50;99.90;;;;;;5017114;28;20080;-91
2022/04/11 05:05:09;;;;;;;16.00;7.70;;;0.50;99.90;;;;;;5013956;28;20068;-91
2022/04/11 05:07:35;;;;;;;16.75;8.10;;;0.50;99.90;;;;;;5032654;28;20037;-91
2022/04/11 05:10:02;;;;;;;17.20;7.80;;;0.50;99.90;;;;;;5032783;28;20030;-91
2022/04/11 05:12:28;;;;;;;16.40;8.73;;;0.50;99.90;;;;;;5015427;28;20036;-91
2022/04/11 05:14:54;;;;;;;14.38;6.97;;;0.50;99.90;;;;;;5014294;28;20034;-92
2022/04/11 05:17:21;;;;;;;10.15;7.07;;;0.60;99.90;;;;;;5015239;28;20099;-92
2022/04/11 05:19:47;;;;;;;12.70;6.93;;;0.60;99.90;;;;;;5016311;28;20404;-92
2022/04/11 05:22:14;;;;;;;12.57;6.32;;;0.60;99.90;;;;;;5016457;28;20061;-92
2022/04/11 05:24:40;;;;;;;12.85;7.03;;;0.60;99.90;;;;;;5016424;28;20115;-92
2022/04/11 05:27:06;;;;;;;9.73;6.70;;;0.70;99.90;;;;;;5016616;28;20026;-91
2022/04/11 05:29:33;;;;;;;18.45;7.35;;;0.70;99.90;;;;;;5016715;28;20033;-92
2022/04/11 05:31:59;;;;;;;14.65;7.40;;;0.80;99.90;;;;;;5032583;28;20472;-92
2022/04/11 05:34:25;;;;;;;17.60;7.75;;;0.80;99.90;;;;;;5032520;28;20033;-91
2022/04/11 05:37:13;;;;;;;14.63;7.60;;;0.90;99.90;;;;;;5015610;28;20037;-92
2022/04/11 05:39:39;;;;;;;17.58;8.27;;;0.90;99.90;;;;;;5048912;28;20456;-91
2022/04/11 05:42:06;;;;;;;16.33;8.00;;;0.90;99.90;;;;;;5015809;28;20124;-92
2022/04/11 05:44:32;;;;;;;13.25;7.70;;;1.10;99.90;;;;;;5049047;28;20073;-91
2022/04/11 05:46:58;;;;;;;12.25;8.25;;;1.20;99.90;;;;;;5015866;28;20076;-91
2022/04/11 05:49:31;;;;;;;14.82;7.78;;;1.30;99.90;;;;;;5031360;28;20036;-92
2022/04/11 05:51:59;;;;;;;12.95;8.25;;;1.40;99.90;;;;;;5032900;28;20076;-92
2022/04/11 05:54:25;;;;;;;14.48;8.52;;;1.40;99.90;;;;;;5049527;28;20405;-90
2022/04/11 05:56:52;;;;;;;18.88;8.68;;;1.50;99.90;;;;;;5016361;28;20044;-91
2022/04/11 05:59:18;;;;;;;12.90;8.95;;;1.70;99.90;;;;;;5016613;28;20018;-91
2022/04/11 06:01:44;;;;;;;15.20;8.65;;;1.70;99.90;;;;;;5016667;28;20034;-90
2022/04/11 06:04:10;;;;;;;20.48;9.32;;;1.80;99.90;;;;;;5017967;28;20037;-90
2022/04/11 06:06:36;;;;;;;19.35;9.48;;;2.00;99.90;;;;;;5036989;28;20029;-91
2022/04/11 06:09:04;;;;;;;22.73;11.55;;;2.10;99.90;;;;;;5020352;28;20036;-90
2022/04/11 06:11:30;;;;;;;26.20;11.93;;;2.30;99.90;;;;;;5036738;28;20060;-91
2022/04/11 06:13:56;;;;;;;27.75;11.02;;;2.30;99.90;;;;;;5036854;28;20349;-91
2022/04/11 06:16:23;;;;;;;22.35;10.80;;;2.40;99.90;;;;;;5020184;28;20029;-90
2022/04/11 06:18:50;;;;;;;24.20;11.57;;;2.50;99.90;;;;;;5019853;28;20029;-90
2022/04/11 06:21:16;;;;;;;17.83;8.93;;;2.60;99.90;;;;;;5052238;28;20033;-90
2022/04/11 06:23:43;;;;;;;21.35;9.45;;;2.70;99.90;;;;;;5019260;28;20037;-90
2022/04/11 06:26:09;;;;;;;19.15;9.90;;;2.80;99.90;;;;;;5016275;28;20053;-90
2022/04/11 06:28:42;;;;;;;15.63;9.32;;;2.90;99.90;;;;;;5020057;28;20116;-90
2022/04/11 06:31:10;;;;;;;12.10;7.63;;;3.00;99.90;;;;;;5017885;28;20116;-90
2022/04/11 06:33:37;;;;;;;11.30;8.02;;;3.10;99.90;;;;;;5019428;28;20037;-90
2022/04/11 06:36:04;;;;;;;14.13;8.13;;;3.10;99.90;;;;;;5036668;28;20080;-90
2022/04/11 06:38:30;;;;;;;11.90;8.55;;;3.20;99.90;;;;;;5036271;28;20543;-90
2022/04/11 06:40:56;;;;;;;12.25;7.72;;;3.30;99.90;;;;;;5019767;28;20029;-91
2022/04/11 06:43:23;;;;;;;12.35;7.43;;;3.30;99.90;;;;;;5018966;28;20446;-90
2022/04/11 06:46:11;;;;;;;18.58;7.90;;;3.40;99.90;;;;;;5022209;28;20534;-90
2022/04/11 06:48:37;;;;;;;13.75;7.53;;;3.50;99.90;;;;;;5019467;28;20025;-90
2022/04/11 06:51:03;;;;;;;14.77;7.55;;;3.60;99.90;;;;;;5019520;28;20041;-90
2022/04/11 06:53:29;;;;;;;15.68;7.47;;;3.70;99.90;;;;;;5019576;28;20022;-90
2022/04/11 06:55:54;;;;;;;9.82;7.28;;;3.80;99.90;;;;;;5035784;28;20036;-89
2022/04/11 06:58:20;;;;;;;11.35;7.78;;;3.90;99.90;;;;;;5019503;28;20026;-90
2022/04/11 07:00:46;;;;;;;15.75;8.00;;;4.10;99.90;;;;;;5018923;28;20107;-90
2022/04/11 07:03:46;;;;;;;18.25;10.07;;;4.10;99.90;;;;;;5019285;28;20071;-91
2022/04/11 07:06:12;;;;;;;19.65;9.13;;;4.20;99.90;;;;;;5019076;28;20033;-89
2022/04/11 07:08:38;;;;;;;12.27;6.75;;;4.30;99.90;;;;;;5018986;28;20037;-91
2022/04/11 07:11:07;;;;;;;10.68;7.03;;;4.40;99.90;;;;;;5019166;28;20257;-90
2022/04/11 07:13:34;;;;;;;14.43;7.07;;;4.50;99.90;;;;;;5019299;28;20117;-90
2022/04/11 07:16:00;;;;;;;11.00;7.15;;;4.60;99.90;;;;;;5017885;28;20040;-90
2022/04/11 07:18:27;;;;;;;14.93;7.22;;;4.70;99.90;;;;;;5018939;28;20021;-91
2022/04/11 07:20:56;;;;;;;12.57;6.90;;;4.80;99.90;;;;;;5016301;28;20246;-91
2022/04/11 07:23:23;;;;;;;14.73;7.22;;;4.90;99.90;;;;;;5036365;28;20412;-94
2022/04/11 07:25:49;;;;;;;13.32;8.48;;;5.00;99.90;;;;;;5019543;28;20384;-91
2022/04/11 07:28:17;;;;;;;12.43;6.57;;;5.00;99.90;;;;;;5035739;28;20445;-91
2022/04/11 07:30:43;;;;;;;14.13;8.18;;;5.10;99.90;;;;;;5018910;28;20030;-91
2022/04/11 07:33:09;;;;;;;17.25;6.95;;;5.20;99.90;;;;;;5036830;28;20028;-91
2022/04/11 07:35:35;;;;;;;13.93;7.07;;;5.30;99.90;;;;;;5018851;28;20093;-91
2022/04/11 07:38:01;;;;;;;11.50;7.45;;;5.30;99.90;;;;;;5019155;28;20060;-91
2022/04/11 07:40:30;;;;;;;13.65;7.13;;;5.40;99.90;;;;;;5019035;28;20037;-90
2022/04/11 07:42:56;;;;;;;17.23;8.98;;;5.40;99.90;;;;;;5018819;28;20033;-91
2022/04/11 07:45:22;;;;;;;15.05;7.25;;;5.40;99.90;;;;;;5019249;28;20024;-90
2022/04/11 07:47:48;;;;;;;17.95;8.65;;;5.50;99.90;;;;;;5019216;28;20025;-89
2022/04/11 07:50:14;;;;;;;13.73;7.38;;;5.50;99.90;;;;;;5018566;28;20026;-90
2022/04/11 07:52:42;;;;;;;11.93;6.78;;;5.50;99.90;;;;;;5018445;28;20389;-90
2022/04/11 07:55:10;;;;;;;9.88;6.85;;;5.50;99.90;;;;;;5035111;28;20030;-90
2022/04/11 07:57:36;;;;;;;13.02;7.20;;;5.60;99.90;;;;;;5018856;28;20025;-91
2022/04/11 08:00:03;;;;;;;12.60;6.93;;;5.70;99.90;;;;;;5019689;28;20125;-90
2022/04/11 08:02:38;;;;;;;15.57;7.07;;;5.80;99.90;;;;;;5021022;28;20034;-92
2022/04/11 08:05:05;;;;;;;13.88;7.20;;;5.90;99.90;;;;;;5035624;28;20128;-90
2022/04/11 08:07:35;;;;;;;10.60;6.45;;;5.90;99.90;;;;;;5018082;28;20074;-91
2022/04/11 08:10:06;;;;;;;8.75;6.63;;;5.90;99.90;;;;;;5035122;28;20051;-90
2022/04/11 08:12:32;;;;;;;10.13;6.45;;;5.90;99.90;;;;;;5018616;28;20104;-90
2022/04/11 08:14:59;;;;;;;11.77;6.20;;;6.10;99.90;;;;;;5018280;28;20091;-90
2022/04/11 08:17:25;;;;;;;10.98;6.20;;;6.10;99.90;;;;;;5018056;28;20079;-91
2022/04/11 08:19:51;;;;;;;9.30;5.75;;;6.20;99.90;;;;;;5018598;28;20434;-92
2022/04/11 08:22:54;;;;;;;9.40;6.13;;;6.20;99.90;;;;;;5018444;28;20026;-91
2022/04/11 08:25:20;;;;;;;11.30;6.00;;;6.30;99.90;;;;;;5018175;28;20034;-91
2022/04/11 08:27:47;;;;;;;9.18;6.13;;;6.40;99.90;;;;;;5017495;28;20071;-91
2022/04/11 08:30:13;;;;;;;10.48;5.72;;;6.50;99.90;;;;;;5051306;28;20041;-90
2022/04/11 08:32:41;;;;;;;13.13;5.93;;;6.60;99.90;;;;;;5018127;28;20029;-91
2022/04/11 08:35:08;;;;;;;15.70;6.90;;;6.60;99.90;;;;;;5018312;28;20029;-91
2022/04/11 08:37:40;;;;;;;9.52;5.97;;;6.70;99.90;;;;;;5018182;28;20036;-91
2022/04/11 08:40:06;;;;;;;;;;;6.70;99.90;;;;;;5018297;28;20723;-91
2022/04/11 08:42:31;;;;;;;9.45;5.32;;;6.80;99.90;;;;;;5017798;28;19913;-91
2022/04/11 08:44:59;;;;;;;13.15;6.18;;;6.90;99.90;;;;;;5017305;28;20045;-90
2022/04/11 08:47:25;;;;;;;13.05;6.72;;;7.00;99.90;;;;;;5017670;28;20124;-91
2022/04/11 08:49:53;;;;;;;9.38;5.25;;;7.10;99.90;;;;;;5017644;28;20515;-91
2022/04/11 08:56:06;;;;;;;7.53;4.93;;;7.30;99.90;;;;;;5035746;28;20044;-91
2022/04/11 08:58:32;;;;;;;8.88;5.05;;;8.40;99.90;;;;;;5017729;28;20040;-91
2022/04/11 09:00:58;;;;;;;7.80;4.75;;;10.00;99.90;;;;;;5017526;28;20064;-90
2022/04/11 09:03:24;;;;;;;8.60;4.13;;;11.40;99.90;;;;;;5017838;28;20052;-90
2022/04/11 09:06:06;;;;;;;7.90;4.03;;;12.20;99.90;;;;;;5034571;28;20034;-91
2022/04/11 09:08:38;;;;;;;5.70;4.07;;;12.70;99.90;;;;;;5017521;28;20045;-91
2022/04/11 09:11:04;;;;;;;7.93;3.85;;;12.70;99.90;;;;;;5017443;28;20560;-90
2022/04/11 09:13:47;;;;;;;6.35;4.32;;;12.90;99.90;;;;;;5017673;28;20057;-91
2022/04/11 09:16:13;;;;;;;5.47;4.07;;;13.10;99.90;;;;;;5017203;28;20088;-91
2022/04/11 09:18:52;;;;;;;7.53;3.42;;;13.40;99.90;;;;;;5016991;28;20072;-93
2022/04/11 09:21:25;;;;;;;7.68;4.25;;;13.30;99.90;;;;;;5017298;28;20470;-91
2022/04/11 09:24:15;;;;;;;5.85;4.10;;;13.00;99.90;;;;;;5033705;28;20128;-91
2022/04/11 09:26:41;;;;;;;6.03;4.18;;;13.00;99.90;;;;;;5033526;28;20029;-90
2022/04/11 09:29:07;;;;;;;8.07;4.25;;;13.30;99.90;;;;;;5017576;28;20037;-92
2022/04/11 09:31:33;;;;;;;7.85;3.60;;;14.20;99.90;;;;;;5017359;28;20131;-91
2022/04/11 09:34:25;;;;;;;7.80;3.53;;;14.10;98.90;;;;;;5017273;28;20026;-91
2022/04/11 09:40:53;;;;;;;5.30;3.83;;;13.20;95.20;;;;;;5035741;28;20036;-91
2022/04/11 09:43:27;;;;;;;7.22;4.05;;;12.60;99.90;;;;;;5017943;28;20033;-92
2022/04/11 09:45:53;;;;;;;6.57;3.65;;;12.20;99.40;;;;;;5000347;28;20180;-89
2022/04/11 09:48:25;;;;;;;9.52;3.85;;;11.80;96.60;;;;;;5016679;28;20112;-90
2022/04/11 09:50:52;;;;;;;9.50;3.60;;;11.20;99.90;;;;;;5016628;28;20057;-91
2022/04/11 09:53:20;;;;;;;5.47;3.33;;;11.20;99.90;;;;;;5033570;28;20025;-91
2022/04/11 09:55:51;;;;;;;5.75;3.28;;;11.60;99.90;;;;;;5016308;28;20025;-91
2022/04/11 09:58:18;;;;;;;7.25;3.15;;;12.20;99.90;;;;;;5033581;28;20029;-91
2022/04/11 10:00:45;;;;;;;7.30;3.40;;;12.40;98.20;;;;;;5050154;28;20420;-90
2022/04/11 10:03:11;;;;;;;5.88;2.72;;;12.80;97.00;;;;;;5016614;28;20042;-91
2022/04/11 10:05:38;;;;;;;7.82;2.90;;;12.40;94.10;;;;;;5017016;28;20668;-92
2022/04/11 10:08:08;;;;;;;5.72;2.58;;;11.90;92.00;;;;;;5033025;28;20068;-91
2022/04/11 10:10:35;;;;;;;5.13;2.88;;;11.70;95.10;;;;;;5000131;28;20082;-91
2022/04/11 10:13:02;;;;;;;3.47;2.83;;;12.20;95.90;;;;;;5016579;28;20037;-92
2022/04/11 10:15:30;;;;;;;5.57;3.10;;;12.10;92.10;;;;;;5000217;28;20071;-91
2022/04/11 10:17:59;;;;;;;6.22;3.20;;;12.20;92.10;;;;;;5033128;28;20036;-91
2022/04/11 10:20:31;;;;;;;8.32;3.25;;;12.60;94.20;;;;;;5016561;28;20136;-91
2022/04/11 10:23:01;;;;;;;4.28;2.80;;;13.10;91.40;;;;;;5016361;28;20033;-91
2022/04/11 10:25:28;;;;;;;9.30;3.33;;;13.30;90.50;;;;;;5033200;28;20384;-92
2022/04/11 10:28:18;;;;;;;6.22;3.05;;;12.80;90.30;;;;;;5016298;28;20044;-92
2022/04/11 10:31:10;;;;;;;7.70;2.97;;;12.70;90.20;;;;;;5016344;28;20037;-91
2022/04/11 10:33:53;;;;;;;5.68;2.97;;;12.70;90.00;;;;;;5016635;28;20145;-91
2022/04/11 10:36:39;;;;;;;4.90;2.80;;;13.00;91.20;;;;;;5016653;28;20535;-91
2022/04/11 10:39:16;;;;;;;4.28;2.78;;;13.40;90.70;;;;;;5016832;28;20026;-91
2022/04/11 10:41:54;;;;;;;7.45;3.88;;;13.70;86.50;;;;;;5016413;28;20385;-91
2022/04/11 10:44:29;;;;;;;5.28;2.88;;;14.00;90.50;;;;;;5033106;28;20033;-91
2022/04/11 10:47:23;;;;;;;5.65;3.03;;;14.20;89.40;;;;;;5033170;28;20033;-91
2022/04/11 10:49:48;;;;;;;5.95;3.47;;;14.40;88.70;;;;;;5011476;28;20065;-91
2022/04/11 10:52:32;;;;;;;4.60;2.67;;;14.10;89.50;;;;;;5019758;28;20076;-91
2022/04/11 10:55:08;;;;;;;5.90;2.97;;;13.90;86.60;;;;;;5036714;28;20025;-92
2022/04/11 10:57:35;;;;;;;8.70;3.88;;;13.80;83.50;;;;;;5020185;28;20053;-92
2022/04/11 11:00:11;;;;;;;8.65;3.28;;;13.50;89.90;;;;;;5036362;28;20057;-91
2022/04/11 11:05:26;;;;;;;6.50;3.50;;;13.20;88.60;;;;;;5019597;28;20044;-91
2022/04/11 11:08:14;;;;;;;4.38;2.70;;;13.70;88.00;;;;;;5035915;28;20045;-92
2022/04/11 11:10:55;;;;;;;7.15;3.90;;;14.30;90.10;;;;;;5052808;28;20558;-92
2022/04/11 11:13:41;;;;;;;4.23;3.73;;;14.40;84.30;;;;;;5020273;28;20029;-91
2022/04/11 11:16:11;;;;;;;6.82;3.85;;;14.20;85.40;;;;;;5019510;28;20404;-90
2022/04/11 11:18:46;;;;;;;5.47;3.45;;;14.50;88.20;;;;;;5019878;28;20038;-89
2022/04/11 11:21:25;;;;;;;5.53;3.50;;;14.40;88.00;;;;;;5020203;28;20038;-91
2022/04/11 11:24:12;;;;;;;9.35;3.33;;;14.10;88.60;;;;;;5020267;28;20071;-91
2022/04/11 11:26:46;;;;;;;5.53;3.30;;;14.40;90.10;;;;;;5019911;28;20033;-91
2022/04/11 11:29:21;;;;;;;4.97;3.40;;;14.40;85.20;;;;;;5018816;28;20052;-92
2022/04/11 11:31:49;;;;;;;5.60;3.63;;;14.70;83.70;;;;;;5019054;28;20038;-91
2022/04/11 11:34:17;;;;;;;7.80;3.20;;;14.70;83.50;;;;;;5018994;28;20380;-91
2022/04/11 11:36:43;;;;;;;5.95;3.95;;;14.90;85.20;;;;;;5019197;28;20211;-92
2022/04/11 11:39:21;;;;;;;7.70;3.45;;;15.10;80.90;;;;;;5035171;28;20033;-92
2022/04/11 11:42:11;;;;;;;5.05;3.38;;;15.30;81.70;;;;;;5018802;28;20041;-91
2022/04/11 11:44:47;;;;;;;6.45;3.05;;;15.00;82.00;;;;;;5027130;28;20029;-92
2022/04/11 11:47:13;;;;;;;4.20;3.00;;;15.20;76.30;;;;;;5018299;28;20046;-92
2022/04/11 11:49:47;;;;;;;8.18;3.70;;;15.20;83.10;;;;;;5018755;28;20040;-91
2022/04/11 11:52:17;;;;;;;5.28;2.92;;;15.20;79.50;;;;;;5018412;28;20033;-93
2022/04/11 11:54:53;;;;;;;6.15;4.00;;;15.50;79.30;;;;;;5018156;28;20033;-92
2022/04/11 11:57:24;;;;;;;5.55;3.50;;;15.40;80.50;;;;;;5018501;28;20128;-89
2022/04/11 11:59:50;;;;;;;5.38;3.78;;;15.40;79.30;;;;;;5017805;28;20037;-89
2022/04/11 12:05:01;;;;;;;6.70;3.08;;;15.50;75.80;;;;;;5034965;28;20544;-89
2022/04/11 12:07:28;;;;;;;7.07;3.63;;;15.70;78.30;;;;;;5018106;28;20099;-91
2022/04/11 12:09:55;;;;;;;6.43;3.92;;;14.90;80.60;;;;;;5017626;28;20449;-90
2022/04/11 12:12:22;;;;;;;5.80;3.47;;;14.00;80.40;;;;;;5017876;28;20040;-92
2022/04/11 12:15:38;;;;;;;6.10;3.63;;;14.40;84.80;;;;;;5018033;28;20029;-91
2022/04/11 12:18:09;;;;;;;7.35;4.57;;;14.50;80.30;;;;;;4984258;28;20099;-92
2022/04/11 12:20:38;;;;;;;7.27;3.93;;;14.00;81.80;;;;;;5017839;28;20040;-91
2022/04/11 12:23:22;;;;;;;8.77;4.20;;;13.80;85.50;;;;;;5017388;28;20033;-91
2022/04/11 12:25:48;;;;;;;7.20;4.38;;;14.00;81.90;;;;;;5033886;28;20025;-90
2022/04/11 12:28:26;;;;;;;5.88;4.15;;;13.90;82.00;;;;;;5017570;28;20199;-91
2022/04/11 12:31:05;;;;;;;6.60;3.70;;;13.90;85.80;;;;;;5018830;28;20037;-93
2022/04/11 12:33:39;;;;;;;6.40;3.90;;;13.80;79.80;;;;;;5033714;28;20025;-91
2022/04/11 12:36:36;;;;;;;5.28;3.92;;;13.60;84.60;;;;;;5033621;28;20052;-92
2022/04/11 12:39:13;;;;;;;6.10;4.13;;;13.90;88.10;;;;;;5034317;28;20025;-92
2022/04/11 12:41:44;;;;;;;7.07;3.72;;;14.00;87.40;;;;;;5017015;28;20041;-91
2022/04/11 12:44:19;;;;;;;5.80;4.20;;;14.10;82.80;;;;;;5017005;28;20037;-91
2022/04/11 12:46:57;;;;;;;8.82;4.25;;;14.00;86.80;;;;;;5010561;28;20025;-92
2022/04/11 12:49:23;;;;;;;5.93;3.95;;;13.90;87.00;;;;;;5034563;28;20036;-92
2022/04/11 12:52:07;;;;;;;7.38;4.68;;;14.00;89.10;;;;;;5017007;28;20176;-91
2022/04/11 12:54:37;;;;;;;7.90;4.32;;;13.80;89.50;;;;;;5033311;28;20481;-91
2022/04/11 12:57:03;;;;;;;6.22;4.50;;;13.80;90.70;;;;;;5016833;28;20029;-90
2022/04/11 12:59:37;;;;;;;8.65;4.13;;;13.60;89.90;;;;;;5017062;28;20021;-90
2022/04/11 13:02:14;;;;;;;4.57;3.60;;;13.70;89.10;;;;;;5016952;28;20029;-89
2022/04/11 13:04:49;;;;;;;7.15;4.07;;;13.90;89.60;;;;;;5017452;28;20044;-89
2022/04/11 13:07:15;;;;;;;7.18;4.30;;;14.10;88.70;;;;;;5035087;28;20512;-89
2022/04/11 13:09:41;;;;;;;7.07;3.95;;;14.10;86.40;;;;;;5018252;28;20547;-89